Terminal Aerodrome Forecast
Issued by NWS

Home | Current Version | Previous Version | Text Only | Print | Product List | Glossary Off
Versions: 1 2 3 4 5 6 7 8 9 10 11 12 13 14 15 16 17 18 19 20 21 22 23 24

200
FTUS43 KBIS 221139
TAFJMS
TAF
KJMS 221139Z 2212/2312 01005KT P6SM BKN080
     FM221900 34014G23KT P6SM VCSH BKN045
     FM230000 35014KT P6SM OVC035
     FM230400 34009KT P6SM BKN025
     FM230700 35011KT P6SM BKN015=

USA.gov is the U.S. government's official web portal to all federal, state and local government web resources and services.